This is the latest recevied weather packets stored in our database for station/object G1SCQ. If no packets are shown the sender has not sent any weather packets the latest 1 day(s).
| Time | Temp. | Humidity | Pressure | Rain* | Wind** | Luminosity | Snow |
|---|---|---|---|---|---|---|---|
| 1778069345 | 7.22° C | 95% | 1013.6 hPa | 0 mm | - | 126 W/m² | - |
| 1778067905 | 6.67° C | 94% | 1013.9 hPa | 0 mm | - | 102 W/m² | - |
| 1778067365 | 7.22° C | 95% | 1014 hPa | 0 mm | - | 84 W/m² | - |
| 1778066825 | 7.22° C | 94% | 1013.8 hPa | 0 mm | - | 126 W/m² | - |
| 1778065745 | 7.78° C | 92% | 1013.7 hPa | 0 mm | - | 93 W/m² | - |
| 1778065205 | 8.89° C | 88% | 1013.8 hPa | 0 mm | - | 51 W/m² | - |
| 1778064845 | 8.89° C | 86% | 1013.7 hPa | 0 mm | - | 62 W/m² | - |
| 1778063225 | 8.89° C | 86% | 1013.8 hPa | 0 mm | - | 93 W/m² | - |
| 1778060705 | 9.44° C | 82% | 1013.5 hPa | 0 mm | - | 367 W/m² | - |
| 1778054405 | 8.89° C | 84% | 1013.1 hPa | 0 mm | - | 175 W/m² | - |
| 1778049364 | 7.22° C | 94% | 1012.4 hPa | 0 mm | - | 57 W/m² | - |
| 1778048824 | 7.22° C | 95% | 1012.2 hPa | 0 mm | - | 75 W/m² | - |
| 1778048284 | 7.22° C | 95% | 1012.3 hPa | 0 mm | - | 35 W/m² | - |
| 1778047744 | 6.67° C | 95% | 1012.1 hPa | 0 mm | - | 55 W/m² | - |
| 1778045764 | 7.22° C | 95% | 1012.4 hPa | 0 mm | - | 29 W/m² | - |
| 1778045224 | 7.22° C | 93% | 1012.3 hPa | 0 mm | - | 13 W/m² | - |
| 1778044684 | 7.22° C | 93% | 1012.1 hPa | 0 mm | - | 11 W/m² | - |
| 1778044144 | 7.78° C | 92% | 1012.2 hPa | 0 mm | - | 9 W/m² | - |
| 1778043244 | 7.22° C | 91% | 1012.2 hPa | 0 mm | - | 7 W/m² | - |
| 1778042704 | 7.78° C | 89% | 1012.3 hPa | 0 mm | - | 7 W/m² | - |
| 1778041624 | 7.22° C | 88% | 1012.2 hPa | 0 mm | - | 2 W/m² | - |
| 1778041084 | 7.22° C | 89% | 1012.4 hPa | 0 mm | - | 1 W/m² | - |
| 1778040544 | 7.22° C | 89% | 1012.3 hPa | 0 mm | - | 0 W/m² | - |
| 1778040004 | 7.22° C | 89% | 1012.3 hPa | 0 mm | - | 0 W/m² | - |
| 1778039644 | 7.22° C | 89% | 1012.3 hPa | 0 mm | - | 0 W/m² | - |
* Rain latest hour (hover to see other rain measurements)
** Current wind speed in m/s (hover to see current wind gust speed)